createdAt,value
2023-04-30T00:02:18.245Z,23.40
2023-04-30T00:04:46.641Z,26.60
2023-04-30T00:07:15.129Z,21.20
2023-04-30T00:09:43.625Z,25.80
2023-04-30T00:12:12.222Z,24.40
2023-04-30T00:14:40.622Z,27.70
2023-04-30T00:17:09.172Z,29.70
2023-04-30T00:19:37.553Z,26.70
2023-04-30T00:22:06.412Z,24.20
2023-04-30T00:24:35.127Z,23.60
2023-04-30T00:27:03.743Z,21.70
2023-04-30T00:29:32.397Z,26.60
2023-04-30T00:32:01.094Z,24.50
2023-04-30T00:34:30.385Z,22.30
2023-04-30T00:36:58.990Z,24.20
2023-04-30T00:39:27.451Z,25.40
2023-04-30T00:41:56.096Z,19.80
2023-04-30T00:44:24.843Z,27.90
2023-04-30T00:46:53.702Z,26.90
2023-04-30T00:49:22.538Z,31.10
2023-04-30T00:51:51.710Z,25.50
2023-04-30T00:54:21.971Z,24.50
2023-04-30T00:56:50.819Z,24.40
2023-04-30T00:59:20.119Z,21.80
2023-04-30T01:01:48.685Z,23.60
2023-04-30T01:04:18.108Z,26.80
2023-04-30T01:06:46.827Z,23.60
2023-04-30T01:09:15.272Z,21.90
2023-04-30T01:12:09.965Z,23.20
2023-04-30T01:15:02.193Z,77.60
2023-04-30T01:17:49.898Z,22.70
2023-04-30T01:20:20.091Z,24.10
2023-04-30T01:23:07.594Z,26.10
2023-04-30T01:25:51.947Z,22.10
2023-04-30T01:28:21.049Z,24.60
2023-04-30T01:30:50.851Z,23.80
2023-04-30T01:33:19.150Z,27.50
2023-04-30T01:36:21.602Z,23.00
2023-04-30T01:39:01.157Z,21.30
2023-04-30T01:41:40.098Z,23.40
2023-04-30T01:44:33.243Z,24.70
2023-04-30T01:47:23.097Z,22.80
2023-04-30T01:50:04.101Z,23.30
2023-04-30T01:52:46.611Z,22.70
2023-04-30T01:55:24.412Z,24.00
2023-04-30T01:58:03.338Z,21.40
2023-04-30T02:00:31.961Z,20.10
2023-04-30T02:03:00.888Z,21.90
2023-04-30T02:05:29.499Z,27.00
2023-04-30T02:07:58.214Z,25.90
2023-04-30T02:10:27.648Z,20.30
2023-04-30T02:12:56.107Z,25.80
2023-04-30T02:15:25.087Z,24.70
2023-04-30T02:17:53.481Z,22.10
2023-04-30T02:20:21.939Z,22.50
2023-04-30T02:22:51.888Z,23.20
2023-04-30T02:25:20.626Z,24.00
2023-04-30T02:27:50.851Z,25.40
2023-04-30T02:30:21.067Z,24.80
2023-04-30T02:32:49.664Z,23.50
2023-04-30T02:35:18.086Z,21.40
2023-04-30T02:37:46.416Z,28.20
2023-04-30T02:40:15.336Z,31.30
2023-04-30T02:42:43.896Z,24.00
2023-04-30T02:45:12.277Z,26.00
2023-04-30T02:47:41.487Z,31.20
2023-04-30T02:50:10.441Z,30.10
2023-04-30T02:52:38.922Z,26.40
2023-04-30T02:55:08.259Z,30.40
2023-04-30T02:57:36.948Z,30.60
2023-04-30T03:00:06.537Z,26.80
2023-04-30T03:02:36.677Z,21.30
2023-04-30T03:05:05.778Z,31.70
2023-04-30T03:07:34.344Z,25.90
2023-04-30T03:10:03.228Z,31.20
2023-04-30T03:12:31.727Z,29.00
2023-04-30T03:15:00.212Z,25.10
2023-04-30T03:17:29.625Z,24.60
2023-04-30T03:19:58.212Z,18.30
2023-04-30T03:22:27.281Z,23.00
2023-04-30T03:24:55.902Z,20.40
2023-04-30T03:27:24.347Z,23.70
2023-04-30T03:29:53.233Z,22.40
2023-04-30T03:32:22.284Z,25.80
2023-04-30T03:34:51.262Z,32.40
2023-04-30T03:37:19.615Z,21.40
2023-04-30T03:39:47.992Z,23.40
2023-04-30T03:42:16.836Z,26.50
2023-04-30T03:44:45.371Z,29.80
2023-04-30T03:47:14.666Z,27.10
2023-04-30T03:49:43.297Z,28.40
2023-04-30T03:52:12.098Z,32.60
2023-04-30T03:54:40.838Z,34.70
2023-04-30T03:57:11.056Z,27.60
2023-04-30T03:59:40.784Z,29.60
2023-04-30T04:02:09.875Z,31.10
2023-04-30T04:04:39.263Z,26.30
2023-04-30T04:07:09.807Z,25.90
2023-04-30T04:09:39.095Z,25.70
2023-04-30T04:12:07.716Z,25.60
2023-04-30T04:14:36.471Z,31.00
2023-04-30T04:17:08.542Z,26.20
2023-04-30T04:19:37.023Z,27.10
2023-04-30T04:22:05.441Z,31.80
2023-04-30T04:24:34.187Z,25.60
2023-04-30T04:27:06.064Z,30.60
2023-04-30T04:32:06.390Z,24.30
2023-04-30T04:37:03.760Z,24.00
2023-04-30T04:39:32.726Z,26.30
2023-04-30T04:42:01.533Z,29.30
2023-04-30T04:44:30.147Z,23.10
2023-04-30T04:46:58.864Z,28.90
2023-04-30T04:49:27.604Z,25.30
2023-04-30T04:51:56.175Z,25.00
2023-04-30T04:54:24.672Z,26.30
2023-04-30T04:56:53.260Z,19.50
2023-04-30T04:59:22.048Z,26.20
2023-04-30T05:01:50.606Z,22.20
2023-04-30T05:04:19.111Z,26.70
2023-04-30T05:06:47.557Z,22.50
2023-04-30T05:09:15.975Z,19.20
2023-04-30T05:11:46.507Z,28.00
2023-04-30T05:14:15.496Z,22.60
2023-04-30T05:16:44.455Z,21.20
2023-04-30T05:19:13.281Z,20.00
2023-04-30T05:21:41.968Z,20.40
2023-04-30T05:24:10.386Z,17.80
2023-04-30T05:26:38.683Z,21.90
2023-04-30T05:29:07.624Z,22.40
2023-04-30T05:31:37.156Z,20.80
2023-04-30T05:34:05.831Z,15.20
2023-04-30T05:36:34.606Z,16.70
2023-04-30T05:39:03.188Z,19.50
2023-04-30T05:41:31.845Z,19.10
2023-04-30T05:44:00.775Z,15.20
2023-04-30T05:46:29.816Z,13.80
2023-04-30T05:48:58.860Z,16.10
2023-04-30T05:51:28.164Z,15.50
2023-04-30T05:53:57.805Z,12.60
2023-04-30T05:56:27.434Z,11.30
2023-04-30T05:58:55.967Z,10.90
2023-04-30T06:01:25.480Z,10.10
2023-04-30T06:03:54.161Z,9.60
2023-04-30T06:06:22.978Z,18.10
2023-04-30T06:08:51.463Z,8.10
2023-04-30T06:11:19.919Z,11.20
2023-04-30T06:13:49.470Z,9.70
2023-04-30T06:16:18.053Z,9.40
2023-04-30T06:18:46.711Z,11.70
2023-04-30T06:21:15.315Z,6.60
2023-04-30T06:23:43.869Z,9.30
2023-04-30T06:26:15.510Z,14.50
2023-04-30T06:28:43.954Z,9.80
2023-04-30T06:31:13.022Z,14.70
2023-04-30T06:33:41.695Z,25.30
2023-04-30T06:36:10.167Z,9.10
2023-04-30T06:38:38.958Z,9.80
2023-04-30T06:41:07.651Z,14.90
2023-04-30T06:43:36.644Z,14.10
2023-04-30T06:46:06.894Z,9.00
2023-04-30T06:48:35.326Z,9.90
2023-04-30T06:51:03.726Z,12.70
2023-04-30T06:53:32.216Z,9.50
2023-04-30T06:56:01.600Z,9.10
2023-04-30T06:58:30.099Z,11.20
2023-04-30T07:00:58.586Z,6.90
2023-04-30T07:03:27.662Z,7.10
2023-04-30T07:05:56.921Z,9.50
2023-04-30T07:08:25.359Z,9.20
2023-04-30T07:10:53.763Z,7.10
2023-04-30T07:13:22.306Z,10.00
2023-04-30T07:15:51.825Z,6.60
2023-04-30T07:18:20.412Z,6.00
2023-04-30T07:20:48.832Z,16.60
2023-04-30T07:23:17.479Z,8.50
2023-04-30T07:25:46.068Z,6.30
2023-04-30T07:28:14.648Z,6.00
2023-04-30T07:30:43.232Z,6.10
2023-04-30T07:33:13.209Z,13.10
2023-04-30T07:35:41.842Z,6.60
2023-04-30T07:38:10.322Z,7.50
2023-04-30T07:40:38.763Z,7.90
2023-04-30T07:43:07.800Z,5.40
2023-04-30T07:45:36.998Z,5.60
2023-04-30T07:48:06.058Z,10.30
2023-04-30T07:50:34.784Z,9.10
2023-04-30T07:53:03.579Z,6.50
2023-04-30T07:55:32.161Z,8.20
2023-04-30T07:58:02.596Z,6.60
2023-04-30T08:00:31.309Z,10.00
2023-04-30T08:03:01.162Z,7.80
2023-04-30T08:05:29.779Z,6.10
2023-04-30T08:07:58.465Z,11.70
2023-04-30T08:10:27.259Z,5.30
2023-04-30T08:12:55.843Z,6.50
2023-04-30T08:15:24.531Z,6.50
2023-04-30T08:17:53.238Z,6.00
2023-04-30T08:20:23.831Z,8.20
2023-04-30T08:22:52.850Z,7.60
2023-04-30T08:25:21.529Z,5.80
2023-04-30T08:27:50.224Z,9.50
2023-04-30T08:30:18.706Z,6.60
2023-04-30T08:32:47.317Z,5.90
2023-04-30T08:35:17.416Z,7.20
2023-04-30T08:37:45.992Z,5.50
2023-04-30T08:40:15.600Z,6.40
2023-04-30T08:42:49.924Z,5.60
2023-04-30T08:45:20.148Z,13.80
2023-04-30T08:47:50.123Z,9.10
2023-04-30T08:50:18.743Z,8.70
2023-04-30T08:52:47.332Z,4.70
2023-04-30T08:55:15.829Z,5.00
2023-04-30T08:57:44.400Z,6.40
2023-04-30T09:00:13.805Z,7.00
2023-04-30T09:02:43.280Z,17.60
2023-04-30T09:05:13.934Z,6.10
2023-04-30T09:07:55.967Z,12.40
2023-04-30T09:10:35.399Z,6.40
2023-04-30T09:13:09.407Z,7.70
2023-04-30T09:15:41.965Z,8.00
2023-04-30T09:18:12.904Z,8.80
2023-04-30T09:21:03.340Z,5.60
2023-04-30T09:23:32.208Z,6.30
2023-04-30T09:26:03.759Z,7.30
2023-04-30T09:31:00.958Z,7.30
2023-04-30T09:33:45.897Z,6.80
2023-04-30T09:36:14.364Z,9.30
2023-04-30T09:38:43.303Z,8.50
2023-04-30T09:41:38.277Z,5.40
2023-04-30T09:44:07.066Z,6.20
2023-04-30T09:46:37.592Z,7.60
2023-04-30T09:49:07.945Z,8.80
2023-04-30T09:51:54.636Z,5.70
2023-04-30T09:54:30.868Z,6.10
2023-04-30T09:57:02.643Z,5.50
2023-04-30T09:59:34.332Z,5.00
2023-04-30T10:02:05.072Z,12.40
2023-04-30T10:04:39.070Z,8.40
2023-04-30T10:07:22.253Z,11.00
2023-04-30T10:09:57.775Z,8.90
2023-04-30T10:12:35.460Z,6.00
2023-04-30T10:15:14.626Z,5.10
2023-04-30T10:17:47.845Z,12.30
2023-04-30T10:20:19.817Z,10.50
2023-04-30T10:22:49.747Z,9.20
2023-04-30T10:25:41.068Z,5.40
2023-04-30T10:29:09.349Z,8.10
2023-04-30T10:32:43.528Z,9.10
2023-04-30T10:36:29.818Z,8.20
2023-04-30T10:39:57.933Z,6.90
2023-04-30T10:43:31.117Z,6.60
2023-04-30T10:47:02.170Z,12.10
2023-04-30T10:49:31.316Z,8.60
2023-04-30T10:52:01.817Z,6.60
2023-04-30T10:54:40.366Z,5.80
2023-04-30T10:57:20.459Z,9.30
2023-04-30T11:00:14.741Z,7.90
2023-04-30T11:02:45.343Z,14.40
2023-04-30T11:05:15.989Z,5.80
2023-04-30T11:07:50.038Z,9.20
2023-04-30T11:10:23.696Z,6.00
2023-04-30T11:12:53.581Z,6.50
2023-04-30T11:15:26.330Z,6.90
2023-04-30T11:17:59.808Z,7.80
2023-04-30T11:20:28.497Z,10.00
2023-04-30T11:23:19.731Z,7.50
2023-04-30T11:25:59.746Z,12.00
2023-04-30T11:30:59.344Z,6.40
2023-04-30T11:33:33.405Z,5.80
2023-04-30T11:36:03.048Z,10.20
2023-04-30T11:38:35.561Z,8.90
2023-04-30T11:41:05.381Z,10.00
2023-04-30T11:43:34.912Z,12.10
2023-04-30T11:46:06.920Z,10.50
2023-04-30T11:48:40.395Z,6.90
2023-04-30T11:51:16.796Z,8.80
2023-04-30T11:53:50.150Z,10.10
2023-04-30T11:56:25.580Z,9.30
2023-04-30T11:58:57.784Z,9.40
2023-04-30T12:01:29.402Z,9.30
2023-04-30T12:03:58.902Z,11.70
2023-04-30T12:06:29.233Z,16.70
2023-04-30T12:09:01.414Z,11.60
2023-04-30T12:11:31.758Z,11.40
2023-04-30T12:14:04.631Z,14.90
2023-04-30T12:16:51.098Z,10.80
2023-04-30T12:19:22.673Z,13.90
2023-04-30T12:21:51.779Z,13.40
2023-04-30T12:24:20.356Z,8.50
2023-04-30T12:26:48.946Z,9.40
2023-04-30T12:29:19.091Z,10.30
2023-04-30T12:31:51.280Z,10.20
2023-04-30T12:34:19.927Z,11.90
2023-04-30T12:36:48.401Z,9.20
2023-04-30T12:39:17.161Z,14.60
2023-04-30T12:41:49.898Z,14.60
2023-04-30T12:44:26.759Z,10.20
2023-04-30T12:46:58.003Z,13.20
2023-04-30T12:49:36.635Z,10.20
2023-04-30T12:52:08.701Z,13.50
2023-04-30T12:54:38.611Z,8.90
2023-04-30T12:57:09.345Z,7.80
2023-04-30T12:59:40.088Z,7.60
2023-04-30T13:02:10.332Z,9.90
2023-04-30T13:04:39.808Z,10.30
2023-04-30T13:07:08.914Z,9.60
2023-04-30T13:09:38.931Z,11.20
2023-04-30T13:12:07.688Z,8.30
2023-04-30T13:14:37.036Z,8.60
2023-04-30T13:17:07.519Z,10.80
2023-04-30T13:19:36.129Z,10.60
2023-04-30T13:22:04.613Z,9.60
2023-04-30T13:24:33.120Z,8.70
2023-04-30T13:27:03.010Z,10.10
2023-04-30T13:29:32.211Z,11.10
2023-04-30T13:32:01.109Z,7.90
2023-04-30T13:34:29.645Z,7.80
2023-04-30T13:36:57.966Z,7.60
2023-04-30T13:39:26.838Z,10.00
2023-04-30T13:41:55.625Z,11.40
2023-04-30T13:44:24.492Z,8.80
2023-04-30T13:46:53.315Z,7.00
2023-04-30T13:49:21.929Z,7.90
2023-04-30T13:51:50.711Z,9.00
2023-04-30T13:54:19.195Z,8.90
2023-04-30T13:56:49.119Z,8.90
2023-04-30T13:59:19.097Z,8.60
2023-04-30T14:01:47.512Z,9.40
2023-04-30T14:04:16.120Z,6.90
2023-04-30T14:06:45.262Z,8.00
2023-04-30T14:09:13.778Z,10.10
2023-04-30T14:11:42.790Z,10.50
2023-04-30T14:14:11.374Z,8.70
2023-04-30T14:16:40.236Z,6.70
2023-04-30T14:19:09.249Z,8.60
2023-04-30T14:21:37.574Z,9.90
2023-04-30T14:24:06.723Z,8.90
2023-04-30T14:26:35.309Z,8.10
2023-04-30T14:29:03.790Z,8.20
2023-04-30T14:31:32.605Z,8.20
2023-04-30T14:34:01.883Z,8.00
2023-04-30T14:36:30.368Z,10.70
2023-04-30T14:38:58.918Z,9.20
2023-04-30T14:41:27.438Z,9.70
2023-04-30T14:43:55.921Z,10.20
2023-04-30T14:46:24.560Z,6.50
2023-04-30T14:48:54.340Z,8.00
2023-04-30T14:51:23.148Z,10.00
2023-04-30T14:53:51.695Z,5.90
2023-04-30T14:56:21.036Z,12.90
2023-04-30T14:58:49.558Z,6.20
2023-04-30T15:01:18.036Z,7.50
2023-04-30T15:03:47.179Z,10.30
2023-04-30T15:06:16.033Z,8.80
2023-04-30T15:08:44.685Z,8.50
2023-04-30T15:11:13.741Z,10.00
2023-04-30T15:13:42.329Z,8.00
2023-04-30T15:16:12.005Z,7.70
2023-04-30T15:18:40.670Z,14.60
2023-04-30T15:21:09.922Z,6.40
2023-04-30T15:23:38.407Z,8.20
2023-04-30T15:26:08.009Z,12.40
2023-04-30T15:28:36.797Z,10.30
2023-04-30T15:31:06.483Z,6.80
2023-04-30T15:33:39.809Z,13.70
2023-04-30T15:36:10.062Z,7.20
2023-04-30T15:38:38.525Z,13.90
2023-04-30T15:41:06.999Z,10.10
2023-04-30T15:43:35.580Z,15.20
2023-04-30T15:46:04.505Z,8.40
2023-04-30T15:48:32.952Z,8.40
2023-04-30T15:51:01.645Z,11.30
2023-04-30T15:53:30.339Z,15.40
2023-04-30T15:55:58.989Z,9.50
2023-04-30T15:58:27.536Z,10.30
2023-04-30T16:00:56.397Z,8.50
2023-04-30T16:03:25.269Z,8.60
2023-04-30T16:05:54.797Z,6.60
2023-04-30T16:08:23.486Z,17.00
2023-04-30T16:10:52.489Z,8.10
2023-04-30T16:13:20.964Z,8.70
2023-04-30T16:15:49.856Z,10.00
2023-04-30T16:18:18.816Z,10.40
2023-04-30T16:20:48.942Z,5.80
2023-04-30T16:23:17.351Z,9.40
2023-04-30T16:25:46.039Z,9.80
2023-04-30T16:28:14.800Z,10.60
2023-04-30T16:30:44.029Z,13.50
2023-04-30T16:33:12.558Z,9.00
2023-04-30T16:35:41.193Z,12.20
2023-04-30T16:38:09.674Z,11.10
2023-04-30T16:40:38.265Z,12.10
2023-04-30T16:43:08.033Z,9.80
2023-04-30T16:45:36.484Z,11.70
2023-04-30T16:48:05.683Z,24.20
2023-04-30T16:50:34.137Z,66.20
2023-04-30T16:55:32.212Z,26.20
2023-04-30T16:58:00.626Z,15.20
2023-04-30T17:00:30.218Z,16.30
2023-04-30T17:02:59.292Z,25.20
2023-04-30T17:05:27.940Z,22.00
2023-04-30T17:07:56.280Z,21.60
2023-04-30T17:10:25.783Z,21.00
2023-04-30T17:12:56.957Z,10.10
2023-04-30T17:15:28.388Z,9.80
2023-04-30T17:21:25.456Z,9.90
2023-04-30T17:24:59.581Z,8.30
2023-04-30T17:28:28.284Z,13.90
2023-04-30T17:31:56.886Z,30.80
2023-04-30T17:35:25.150Z,12.50
2023-04-30T17:38:53.318Z,12.70
2023-04-30T17:46:13.906Z,13.70
2023-04-30T17:49:10.273Z,18.70
2023-04-30T17:51:39.315Z,12.60
2023-04-30T17:59:00.156Z,8.70
2023-04-30T18:02:28.414Z,9.40
2023-04-30T18:04:56.928Z,5.70
2023-04-30T18:08:25.110Z,6.10
2023-04-30T18:11:53.477Z,5.80
2023-04-30T18:14:22.699Z,5.40
2023-04-30T18:16:52.014Z,4.60
2023-04-30T18:19:20.967Z,5.50
2023-04-30T18:21:49.478Z,4.20
2023-04-30T18:24:19.473Z,5.20
2023-04-30T18:26:47.895Z,5.90
2023-04-30T18:29:17.673Z,3.70
2023-04-30T18:31:46.856Z,4.40
2023-04-30T18:34:15.967Z,4.40
2023-04-30T18:36:48.563Z,12.60
2023-04-30T18:39:20.207Z,6.40
2023-04-30T18:41:49.701Z,5.70
2023-04-30T18:44:20.638Z,9.00
2023-04-30T18:50:42.563Z,12.40
2023-04-30T18:54:11.251Z,9.70
2023-04-30T18:57:41.963Z,11.20
2023-04-30T19:01:15.175Z,10.20
2023-04-30T19:04:44.140Z,9.90
2023-04-30T19:08:12.314Z,6.90
2023-04-30T19:18:43.909Z,5.40
2023-04-30T19:22:12.434Z,6.80
2023-04-30T19:25:40.744Z,5.50
2023-04-30T19:29:09.003Z,6.00
2023-04-30T19:32:41.788Z,5.70
2023-04-30T19:36:10.374Z,7.10
2023-04-30T19:39:38.545Z,7.00
2023-04-30T19:43:14.942Z,6.00
2023-04-30T19:46:43.697Z,8.50
2023-04-30T19:49:12.601Z,11.20
2023-04-30T19:51:41.224Z,7.20
2023-04-30T19:54:14.492Z,10.40
2023-04-30T19:56:43.489Z,8.90
2023-04-30T19:59:12.273Z,8.80
2023-04-30T20:01:42.165Z,8.20
2023-04-30T20:04:10.827Z,5.20
2023-04-30T20:06:39.627Z,6.30
2023-04-30T20:09:08.262Z,5.20
2023-04-30T20:11:37.360Z,8.80
2023-04-30T20:14:06.235Z,4.50
2023-04-30T20:16:34.541Z,7.30
2023-04-30T20:19:03.257Z,4.80
2023-04-30T20:21:32.415Z,4.40
2023-04-30T20:24:00.898Z,4.70
2023-04-30T20:26:30.192Z,6.40
2023-04-30T20:28:58.474Z,13.30
2023-04-30T20:31:31.676Z,6.10
2023-04-30T20:34:00.659Z,9.80
2023-04-30T20:36:32.007Z,11.10
2023-04-30T20:39:00.562Z,18.30
2023-04-30T20:41:29.793Z,20.70
2023-04-30T20:44:00.230Z,4.70
2023-04-30T20:46:29.051Z,6.60
2023-04-30T20:49:04.224Z,6.60
2023-04-30T20:51:32.983Z,3.90
2023-04-30T20:54:01.828Z,6.20
2023-04-30T20:56:31.729Z,8.10
2023-04-30T20:59:00.646Z,7.20
2023-04-30T21:01:29.246Z,5.70
2023-04-30T21:03:57.918Z,7.00
2023-04-30T21:06:26.234Z,7.20
2023-04-30T21:08:54.878Z,10.80
2023-04-30T21:11:24.102Z,21.90
2023-04-30T21:13:52.825Z,5.50
2023-04-30T21:16:21.956Z,5.60
2023-04-30T21:18:50.622Z,4.70
2023-04-30T21:21:19.136Z,7.20
2023-04-30T21:23:48.398Z,7.10
2023-04-30T21:26:17.200Z,6.90
2023-04-30T21:28:46.013Z,7.40
2023-04-30T21:31:15.427Z,8.90
2023-04-30T21:33:46.445Z,5.20
2023-04-30T21:36:16.792Z,6.60
2023-04-30T21:38:45.211Z,5.70
2023-04-30T21:41:17.441Z,5.90
2023-04-30T21:43:46.128Z,5.40
2023-04-30T21:46:14.907Z,5.10
2023-04-30T21:48:43.613Z,6.60
2023-04-30T21:51:15.209Z,3.90
2023-04-30T21:53:44.975Z,4.80
2023-04-30T21:56:13.780Z,8.20
2023-04-30T21:58:42.246Z,9.50
2023-04-30T22:01:11.576Z,7.70
2023-04-30T22:03:42.245Z,7.80
2023-04-30T22:06:10.934Z,13.60
2023-04-30T22:08:39.746Z,7.30
2023-04-30T22:11:08.127Z,7.70
2023-04-30T22:13:37.218Z,12.90
2023-04-30T22:16:06.410Z,7.50
2023-04-30T22:18:34.893Z,11.50
2023-04-30T22:21:03.597Z,10.20
2023-04-30T22:23:32.241Z,8.40
2023-04-30T22:26:01.465Z,8.50
2023-04-30T22:28:30.269Z,8.80
2023-04-30T22:31:00.026Z,6.90
2023-04-30T22:33:28.867Z,8.80
2023-04-30T22:35:57.355Z,8.30
2023-04-30T22:38:25.938Z,7.30
2023-04-30T22:40:54.212Z,9.80
2023-04-30T22:43:22.901Z,8.40
2023-04-30T22:45:51.915Z,6.90
2023-04-30T22:48:20.273Z,7.60
2023-04-30T22:50:49.063Z,8.50
2023-04-30T22:53:17.953Z,12.70
2023-04-30T22:55:46.645Z,9.40
2023-04-30T22:58:15.086Z,9.00
2023-04-30T23:00:43.886Z,8.70
2023-04-30T23:03:12.904Z,7.10
2023-04-30T23:05:41.593Z,10.60
2023-04-30T23:08:10.285Z,7.70
2023-04-30T23:10:38.868Z,92.80
2023-04-30T23:13:07.658Z,9.20
2023-04-30T23:15:36.470Z,9.00
2023-04-30T23:18:06.683Z,8.70
2023-04-30T23:20:35.146Z,12.60
2023-04-30T23:23:03.703Z,8.60
2023-04-30T23:25:33.037Z,7.50
2023-04-30T23:28:02.051Z,11.50
2023-04-30T23:30:31.092Z,6.50
2023-04-30T23:32:59.605Z,7.90
2023-04-30T23:35:28.398Z,7.90
2023-04-30T23:37:57.374Z,7.00
2023-04-30T23:40:26.201Z,8.10
2023-04-30T23:42:54.688Z,6.90
2023-04-30T23:45:23.662Z,8.20
2023-04-30T23:47:52.490Z,6.90
2023-04-30T23:50:20.866Z,8.40
2023-04-30T23:52:49.619Z,6.10
2023-04-30T23:55:18.204Z,6.00
2023-04-30T23:57:47.922Z,5.90
